createdAt,value
2023-05-19T00:01:44.908Z,33.00
2023-05-19T00:04:15.691Z,36.47
2023-05-19T00:06:49.333Z,41.70
2023-05-19T00:09:19.484Z,52.13
2023-05-19T00:11:49.316Z,35.38
2023-05-19T00:14:19.086Z,32.65
2023-05-19T00:16:48.570Z,39.88
2023-05-19T00:19:17.867Z,41.50
2023-05-19T00:21:47.055Z,37.53
2023-05-19T00:24:16.185Z,23.92
2023-05-19T00:26:45.341Z,29.90
2023-05-19T00:29:14.471Z,39.97
2023-05-19T00:31:43.611Z,42.45
2023-05-19T00:34:13.533Z,47.88
2023-05-19T00:36:42.871Z,48.42
2023-05-19T00:39:12.173Z,38.05
2023-05-19T00:41:41.528Z,36.20
2023-05-19T00:44:10.690Z,40.25
2023-05-19T00:46:40.059Z,47.15
2023-05-19T00:49:09.298Z,43.42
2023-05-19T00:51:38.607Z,34.92
2023-05-19T00:54:07.957Z,36.13
2023-05-19T00:56:37.282Z,40.70
2023-05-19T00:59:07.471Z,44.08
2023-05-19T01:01:37.706Z,48.03
2023-05-19T01:04:10.907Z,40.47
2023-05-19T01:06:40.415Z,34.75
2023-05-19T01:09:10.139Z,40.00
2023-05-19T01:11:39.410Z,49.13
2023-05-19T01:14:28.225Z,37.75
2023-05-19T01:17:20.372Z,32.38
2023-05-19T01:20:03.097Z,39.08
2023-05-19T01:23:06.199Z,36.40
2023-05-19T01:26:38.232Z,32.28
2023-05-19T01:29:45.347Z,36.35
2023-05-19T01:32:19.109Z,34.40
2023-05-19T01:34:52.241Z,27.80
2023-05-19T01:37:23.714Z,29.38
2023-05-19T01:39:53.989Z,26.50
2023-05-19T01:42:24.659Z,30.00
2023-05-19T01:44:55.995Z,27.25
2023-05-19T01:47:30.860Z,32.38
2023-05-19T01:50:00.224Z,28.83
2023-05-19T01:52:29.531Z,27.10
2023-05-19T01:54:58.778Z,28.73
2023-05-19T01:58:12.104Z,27.52
2023-05-19T02:00:57.454Z,30.88
2023-05-19T02:04:11.057Z,32.38
2023-05-19T02:07:07.202Z,30.10
2023-05-19T02:10:12.610Z,35.58
2023-05-19T02:12:42.694Z,29.67
2023-05-19T02:15:18.276Z,36.42
2023-05-19T02:17:52.834Z,30.60
2023-05-19T02:20:25.333Z,30.05
2023-05-19T02:22:54.534Z,30.40
2023-05-19T02:25:25.311Z,27.05
2023-05-19T02:27:56.042Z,26.40
2023-05-19T02:30:25.513Z,34.10
2023-05-19T02:32:55.185Z,25.05
2023-05-19T02:35:24.725Z,28.98
2023-05-19T02:37:55.099Z,36.30
2023-05-19T02:40:24.866Z,30.48
2023-05-19T02:42:54.149Z,32.05
2023-05-19T02:45:23.436Z,25.10
2023-05-19T02:47:52.771Z,28.08
2023-05-19T02:50:23.483Z,34.35
2023-05-19T02:52:53.812Z,29.73
2023-05-19T02:55:23.040Z,37.45
2023-05-19T02:57:52.338Z,34.15
2023-05-19T03:00:21.791Z,31.83
2023-05-19T03:02:51.082Z,31.08
2023-05-19T03:05:21.156Z,28.20
2023-05-19T03:07:50.344Z,23.15
2023-05-19T03:10:19.653Z,28.83
2023-05-19T03:12:48.894Z,29.13
2023-05-19T03:15:19.838Z,28.98
2023-05-19T03:17:49.221Z,21.15
2023-05-19T03:20:19.077Z,32.05
2023-05-19T03:22:48.297Z,35.28
2023-05-19T03:25:18.090Z,25.83
2023-05-19T03:27:47.289Z,27.85
2023-05-19T03:30:17.099Z,32.70
2023-05-19T03:32:46.365Z,29.02
2023-05-19T03:35:16.023Z,28.25
2023-05-19T03:37:45.302Z,29.13
2023-05-19T03:40:15.481Z,29.15
2023-05-19T03:42:45.320Z,29.98
2023-05-19T03:45:15.257Z,29.85
2023-05-19T03:47:44.529Z,31.65
2023-05-19T03:50:13.770Z,30.55
2023-05-19T03:52:46.590Z,26.77
2023-05-19T03:55:16.065Z,24.02
2023-05-19T03:57:45.342Z,24.13
2023-05-19T04:00:18.374Z,31.08
2023-05-19T04:02:47.676Z,32.55
2023-05-19T04:05:17.181Z,25.67
2023-05-19T04:07:47.791Z,29.65
2023-05-19T04:10:17.109Z,28.55
2023-05-19T04:12:46.327Z,24.95
2023-05-19T04:15:15.702Z,25.75
2023-05-19T04:17:51.567Z,29.20
2023-05-19T04:20:20.958Z,23.83
2023-05-19T04:22:50.197Z,28.38
2023-05-19T04:25:21.171Z,25.48
2023-05-19T04:27:50.429Z,23.45
2023-05-19T04:30:23.202Z,23.75
2023-05-19T04:32:52.463Z,26.77
2023-05-19T04:35:23.542Z,37.42
2023-05-19T04:37:55.324Z,25.00
2023-05-19T04:40:24.865Z,25.23
2023-05-19T04:42:55.135Z,25.05
2023-05-19T04:45:26.809Z,27.63
2023-05-19T04:47:58.963Z,27.95
2023-05-19T04:50:29.769Z,25.08
2023-05-19T04:53:00.200Z,24.95
2023-05-19T04:55:29.495Z,26.27
2023-05-19T04:57:58.709Z,28.30
2023-05-19T05:00:28.106Z,22.40
2023-05-19T05:02:58.871Z,26.95
2023-05-19T05:05:28.144Z,24.90
2023-05-19T05:07:57.365Z,27.92
2023-05-19T05:10:27.111Z,32.05
2023-05-19T05:12:56.923Z,31.02
2023-05-19T05:15:29.667Z,29.63
2023-05-19T05:17:59.268Z,25.33
2023-05-19T05:20:29.103Z,25.35
2023-05-19T05:22:59.001Z,23.58
2023-05-19T05:25:28.600Z,20.90
2023-05-19T05:27:59.955Z,31.13
2023-05-19T05:30:29.131Z,22.73
2023-05-19T05:32:59.089Z,33.95
2023-05-19T05:35:28.927Z,29.63
2023-05-19T05:37:58.128Z,31.85
2023-05-19T05:40:27.440Z,26.25
2023-05-19T05:42:57.883Z,22.25
2023-05-19T05:45:27.705Z,19.70
2023-05-19T05:47:57.553Z,24.92
2023-05-19T05:50:27.402Z,29.25
2023-05-19T05:53:01.044Z,22.42
2023-05-19T05:55:31.061Z,33.40
2023-05-19T05:58:03.023Z,29.38
2023-05-19T06:00:32.663Z,28.08
2023-05-19T06:03:02.191Z,25.15
2023-05-19T06:05:31.699Z,30.75
2023-05-19T06:08:01.002Z,33.08
2023-05-19T06:10:33.486Z,31.73
2023-05-19T06:13:02.962Z,24.60
2023-05-19T06:15:32.237Z,29.45
2023-05-19T06:18:01.973Z,22.95
2023-05-19T06:20:31.910Z,31.13
2023-05-19T06:23:02.816Z,19.98
2023-05-19T06:25:32.400Z,27.02
2023-05-19T06:28:01.876Z,22.52
2023-05-19T06:30:31.187Z,20.88
2023-05-19T06:33:00.766Z,29.60
2023-05-19T06:35:30.182Z,30.13
2023-05-19T06:37:59.348Z,30.75
2023-05-19T06:40:28.609Z,27.58
2023-05-19T06:42:57.805Z,25.67
2023-05-19T06:45:27.020Z,28.75
2023-05-19T06:47:56.572Z,23.67
2023-05-19T06:50:26.441Z,23.58
2023-05-19T06:52:55.721Z,32.08
2023-05-19T06:55:25.237Z,21.73
2023-05-19T06:57:54.491Z,21.20
2023-05-19T07:00:31.891Z,27.42
2023-05-19T07:03:01.812Z,28.60
2023-05-19T07:05:31.119Z,27.02
2023-05-19T07:08:00.353Z,22.48
2023-05-19T07:10:30.115Z,26.63
2023-05-19T07:12:59.687Z,26.85
2023-05-19T07:15:28.905Z,28.50
2023-05-19T07:18:00.263Z,22.98
2023-05-19T07:20:29.599Z,22.75
2023-05-19T07:22:58.825Z,26.95
2023-05-19T07:25:30.006Z,22.85
2023-05-19T07:27:59.620Z,22.70
2023-05-19T07:30:31.257Z,23.55
2023-05-19T07:33:00.871Z,25.80
2023-05-19T07:35:30.995Z,28.20
2023-05-19T07:38:00.212Z,18.05
2023-05-19T07:40:29.495Z,24.55
2023-05-19T07:42:58.907Z,21.80
2023-05-19T07:45:28.278Z,21.88
2023-05-19T07:47:57.739Z,23.73
2023-05-19T07:50:27.820Z,24.45
2023-05-19T07:52:57.549Z,24.45
2023-05-19T07:55:27.207Z,20.65
2023-05-19T07:57:57.132Z,20.52
2023-05-19T08:00:26.562Z,24.95
2023-05-19T08:02:57.815Z,21.10
2023-05-19T08:05:27.354Z,34.08
2023-05-19T08:07:57.578Z,23.38
2023-05-19T08:10:26.858Z,19.48
2023-05-19T08:12:56.162Z,25.42
2023-05-19T08:15:26.395Z,20.85
2023-05-19T08:17:55.645Z,23.45
2023-05-19T08:20:25.319Z,33.05
2023-05-19T08:22:54.591Z,20.90
2023-05-19T08:25:24.050Z,19.38
2023-05-19T08:27:53.224Z,24.13
2023-05-19T08:30:22.963Z,26.52
2023-05-19T08:32:52.190Z,21.58
2023-05-19T08:35:21.575Z,25.95
2023-05-19T08:37:50.890Z,19.20
2023-05-19T08:40:20.528Z,26.42
2023-05-19T08:42:50.271Z,24.92
2023-05-19T08:45:19.653Z,18.77
2023-05-19T08:47:50.251Z,24.30
2023-05-19T08:50:26.752Z,20.48
2023-05-19T08:53:36.249Z,26.88
2023-05-19T08:56:26.220Z,19.60
2023-05-19T08:58:57.485Z,20.50
2023-05-19T09:01:27.886Z,21.60
2023-05-19T09:03:57.443Z,21.25
2023-05-19T09:06:27.884Z,28.67
2023-05-19T09:08:57.485Z,21.00
2023-05-19T09:11:27.099Z,19.00
2023-05-19T09:13:56.414Z,28.10
2023-05-19T09:16:27.951Z,17.75
2023-05-19T09:19:01.680Z,25.85
2023-05-19T09:21:34.654Z,25.15
2023-05-19T09:24:09.497Z,25.58
2023-05-19T09:26:44.124Z,25.80
2023-05-19T09:29:20.507Z,26.80
2023-05-19T09:32:01.658Z,38.65
2023-05-19T09:34:31.506Z,20.08
2023-05-19T09:37:01.074Z,23.33
2023-05-19T09:39:31.072Z,21.23
2023-05-19T09:42:00.266Z,18.30
2023-05-19T09:44:32.595Z,27.83
2023-05-19T09:47:01.925Z,26.35
2023-05-19T09:49:33.612Z,24.30
2023-05-19T09:52:05.490Z,23.42
2023-05-19T09:54:36.571Z,24.08
2023-05-19T09:57:08.955Z,24.73
2023-05-19T09:59:40.110Z,32.45
2023-05-19T10:02:19.731Z,21.15
2023-05-19T10:04:50.032Z,26.90
2023-05-19T10:07:21.004Z,30.23
2023-05-19T10:09:52.572Z,30.50
2023-05-19T10:12:23.326Z,22.40
2023-05-19T10:14:55.701Z,34.17
2023-05-19T10:17:27.352Z,37.28
2023-05-19T10:19:56.931Z,28.52
2023-05-19T10:22:26.434Z,25.73
2023-05-19T10:24:56.924Z,26.17
2023-05-19T10:27:29.284Z,25.52
2023-05-19T10:30:06.181Z,29.75
2023-05-19T10:32:37.084Z,29.03
2023-05-19T10:35:31.454Z,29.23
2023-05-19T10:38:47.364Z,35.53
2023-05-19T10:41:32.683Z,33.47
2023-05-19T10:44:15.999Z,31.05
2023-05-19T10:46:45.657Z,35.65
2023-05-19T10:49:26.241Z,23.95
2023-05-19T10:51:58.142Z,31.77
2023-05-19T10:54:55.566Z,35.72
2023-05-19T10:59:59.122Z,28.85
2023-05-19T11:02:45.128Z,35.35
2023-05-19T11:05:19.233Z,21.27
2023-05-19T11:08:08.832Z,28.13
2023-05-19T11:10:38.059Z,32.67
2023-05-19T11:13:07.542Z,30.40
2023-05-19T11:15:38.297Z,32.75
2023-05-19T11:18:07.942Z,28.58
2023-05-19T11:20:41.194Z,29.45
2023-05-19T11:23:21.241Z,33.10
2023-05-19T11:25:54.854Z,31.33
2023-05-19T11:28:30.404Z,31.38
2023-05-19T11:31:02.228Z,38.13
2023-05-19T11:33:34.659Z,30.10
2023-05-19T11:36:05.602Z,33.88
2023-05-19T11:38:40.691Z,32.92
2023-05-19T11:41:10.105Z,36.30
2023-05-19T11:43:39.225Z,35.25
2023-05-19T11:46:10.599Z,40.08
2023-05-19T11:48:39.862Z,29.85
2023-05-19T11:51:09.311Z,35.20
2023-05-19T11:53:39.675Z,39.75
2023-05-19T11:56:09.153Z,41.17
2023-05-19T11:58:39.614Z,39.00
2023-05-19T12:01:08.803Z,46.60
2023-05-19T12:03:38.376Z,41.10
2023-05-19T12:06:09.541Z,47.80
2023-05-19T12:08:38.859Z,41.25
2023-05-19T12:11:09.016Z,40.00
2023-05-19T12:13:38.712Z,44.50
2023-05-19T12:16:09.735Z,52.72
2023-05-19T12:18:40.373Z,67.70
2023-05-19T12:21:09.677Z,52.33
2023-05-19T12:23:41.037Z,42.45
2023-05-19T12:26:11.566Z,44.00
2023-05-19T12:28:40.895Z,43.40
2023-05-19T12:31:10.156Z,42.88
2023-05-19T12:33:39.502Z,42.00
2023-05-19T12:36:09.715Z,48.25
2023-05-19T12:38:40.549Z,52.97
2023-05-19T12:41:13.595Z,45.95
2023-05-19T12:43:43.369Z,47.92
2023-05-19T12:46:14.465Z,47.80
2023-05-19T12:48:48.437Z,41.15
2023-05-19T12:51:21.544Z,46.15
2023-05-19T12:53:52.542Z,36.95
2023-05-19T12:56:22.244Z,45.53
2023-05-19T12:58:56.843Z,54.20
2023-05-19T13:01:26.151Z,39.92
2023-05-19T13:03:55.620Z,49.10
2023-05-19T13:06:24.954Z,51.60
2023-05-19T13:08:54.096Z,40.28
2023-05-19T13:11:23.289Z,43.22
2023-05-19T13:13:52.583Z,48.38
2023-05-19T13:16:21.858Z,52.30
2023-05-19T13:18:51.382Z,51.53
2023-05-19T13:21:20.709Z,53.60
2023-05-19T13:23:49.891Z,60.80
2023-05-19T13:26:19.156Z,52.53
2023-05-19T13:28:48.948Z,55.72
2023-05-19T13:31:21.026Z,47.88
2023-05-19T13:33:50.817Z,60.80
2023-05-19T13:36:22.989Z,52.72
2023-05-19T13:38:57.565Z,55.45
2023-05-19T13:41:27.859Z,58.58
2023-05-19T13:44:03.041Z,52.88
2023-05-19T13:46:44.017Z,54.13
2023-05-19T13:49:14.294Z,53.22
2023-05-19T13:51:45.360Z,52.10
2023-05-19T13:54:17.602Z,47.60
2023-05-19T13:56:49.947Z,48.45
2023-05-19T13:59:19.404Z,58.78
2023-05-19T14:01:49.271Z,46.50
2023-05-19T14:04:20.624Z,51.42
2023-05-19T14:06:52.808Z,55.65
2023-05-19T14:09:22.809Z,45.15
2023-05-19T14:11:52.461Z,43.88
2023-05-19T14:14:22.620Z,45.83
2023-05-19T14:16:51.916Z,43.47
2023-05-19T14:19:21.433Z,48.28
2023-05-19T14:21:54.918Z,43.17
2023-05-19T14:24:24.186Z,35.42
2023-05-19T14:26:54.307Z,37.42
2023-05-19T14:29:23.653Z,42.70
2023-05-19T14:31:52.983Z,37.20
2023-05-19T14:34:22.455Z,31.25
2023-05-19T14:36:52.155Z,36.65
2023-05-19T14:39:21.596Z,28.65
2023-05-19T14:41:52.452Z,22.48
2023-05-19T14:44:21.763Z,28.08
2023-05-19T14:46:50.951Z,30.90
2023-05-19T14:49:20.272Z,31.23
2023-05-19T14:51:49.547Z,27.10
2023-05-19T14:54:21.728Z,26.73
2023-05-19T14:56:50.956Z,34.88
2023-05-19T14:59:20.172Z,32.38
2023-05-19T15:01:49.554Z,26.30
2023-05-19T15:04:18.930Z,32.20
2023-05-19T15:06:52.315Z,27.67
2023-05-19T15:09:27.977Z,33.28
2023-05-19T15:11:57.303Z,29.42
2023-05-19T15:14:27.861Z,35.05
2023-05-19T15:16:58.041Z,27.77
2023-05-19T15:19:30.337Z,34.17
2023-05-19T15:21:59.629Z,34.65
2023-05-19T15:24:29.091Z,31.90
2023-05-19T15:27:00.740Z,28.83
2023-05-19T15:29:38.790Z,32.40
2023-05-19T15:34:37.864Z,34.30
2023-05-19T15:37:07.768Z,33.28
2023-05-19T15:39:37.094Z,29.25
2023-05-19T15:42:06.512Z,41.45
2023-05-19T15:44:37.881Z,30.73
2023-05-19T15:47:07.395Z,34.97
2023-05-19T15:49:39.584Z,32.03
2023-05-19T15:52:09.131Z,32.90
2023-05-19T15:55:00.846Z,38.05
2023-05-19T15:57:30.115Z,31.73
2023-05-19T16:00:02.058Z,34.63
2023-05-19T16:02:34.168Z,29.10
2023-05-19T16:05:03.481Z,33.85
2023-05-19T16:07:35.700Z,34.70
2023-05-19T16:10:07.991Z,28.33
2023-05-19T16:12:37.991Z,28.48
2023-05-19T16:15:07.940Z,40.17
2023-05-19T16:17:37.271Z,31.27
2023-05-19T16:20:07.569Z,34.20
2023-05-19T16:22:36.913Z,39.67
2023-05-19T16:25:07.033Z,34.10
2023-05-19T16:27:36.456Z,32.80
2023-05-19T16:30:06.694Z,29.23
2023-05-19T16:32:36.015Z,34.67
2023-05-19T16:35:06.565Z,33.00
2023-05-19T16:37:36.342Z,38.33
2023-05-19T16:40:06.004Z,35.22
2023-05-19T16:42:35.279Z,30.88
2023-05-19T16:45:04.753Z,28.75
2023-05-19T16:47:37.161Z,34.00
2023-05-19T16:50:07.605Z,36.25
2023-05-19T16:52:37.757Z,36.20
2023-05-19T16:55:11.883Z,36.63
2023-05-19T16:57:41.128Z,32.95
2023-05-19T17:00:11.417Z,36.28
2023-05-19T17:02:40.781Z,33.72
2023-05-19T17:05:10.805Z,30.90
2023-05-19T17:07:40.041Z,39.78
2023-05-19T17:10:10.110Z,31.92
2023-05-19T17:12:39.392Z,35.50
2023-05-19T17:15:09.368Z,33.58
2023-05-19T17:17:38.639Z,41.75
2023-05-19T17:20:08.901Z,37.03
2023-05-19T17:22:38.183Z,42.85
2023-05-19T17:25:08.406Z,32.35
2023-05-19T17:27:37.758Z,35.80
2023-05-19T17:30:08.078Z,39.97
2023-05-19T17:32:40.238Z,28.85
2023-05-19T17:35:10.456Z,30.88
2023-05-19T17:37:39.686Z,37.50
2023-05-19T17:40:10.001Z,33.33
2023-05-19T17:42:39.270Z,36.67
2023-05-19T17:45:12.836Z,36.88
2023-05-19T17:47:42.111Z,36.42
2023-05-19T17:50:12.182Z,35.20
2023-05-19T17:52:42.459Z,37.92
2023-05-19T17:55:13.704Z,40.58
2023-05-19T17:57:49.303Z,33.90
2023-05-19T18:00:22.571Z,33.65
2023-05-19T18:02:52.785Z,33.60
2023-05-19T18:05:22.765Z,34.67
2023-05-19T18:07:52.353Z,34.88
2023-05-19T18:10:22.191Z,35.60
2023-05-19T18:12:54.802Z,35.92
2023-05-19T18:15:25.254Z,40.05
2023-05-19T18:17:54.578Z,32.55
2023-05-19T18:20:23.878Z,37.83
2023-05-19T18:22:53.885Z,42.35
2023-05-19T18:25:25.857Z,33.67
2023-05-19T18:27:58.054Z,28.98
2023-05-19T18:30:27.397Z,34.00
2023-05-19T18:32:56.801Z,37.05
2023-05-19T18:35:26.584Z,36.30
2023-05-19T18:37:58.418Z,34.75
2023-05-19T18:40:27.805Z,29.27
2023-05-19T18:42:57.100Z,37.28
2023-05-19T18:45:26.529Z,37.28
2023-05-19T18:47:55.868Z,38.33
2023-05-19T18:50:25.451Z,31.83
2023-05-19T18:52:54.705Z,34.47
2023-05-19T18:55:24.803Z,32.70
2023-05-19T18:57:56.426Z,40.22
2023-05-19T19:00:26.811Z,35.88
2023-05-19T19:02:56.132Z,34.97
2023-05-19T19:05:25.428Z,35.10
2023-05-19T19:07:54.665Z,35.30
2023-05-19T19:10:24.042Z,33.33
2023-05-19T19:12:53.238Z,33.28
2023-05-19T19:15:22.514Z,35.42
2023-05-19T19:17:51.980Z,36.00
2023-05-19T19:20:21.728Z,36.67
2023-05-19T19:22:52.293Z,36.40
2023-05-19T19:25:23.281Z,34.97
2023-05-19T19:27:53.077Z,31.33
2023-05-19T19:30:22.369Z,34.75
2023-05-19T19:32:51.657Z,32.28
2023-05-19T19:35:21.046Z,34.85
2023-05-19T19:37:52.634Z,35.78
2023-05-19T19:40:22.077Z,36.72
2023-05-19T19:42:51.352Z,29.85
2023-05-19T19:45:21.901Z,26.65
2023-05-19T19:47:51.183Z,34.00
2023-05-19T19:50:20.561Z,37.10
2023-05-19T19:52:49.823Z,27.80
2023-05-19T19:55:19.259Z,37.88
2023-05-19T19:57:50.198Z,31.42
2023-05-19T20:00:21.371Z,28.45
2023-05-19T20:03:02.671Z,37.05
2023-05-19T20:05:33.710Z,30.15
2023-05-19T20:08:03.000Z,34.25
2023-05-19T20:10:32.567Z,36.20
2023-05-19T20:13:02.214Z,32.05
2023-05-19T20:15:31.532Z,31.00
2023-05-19T20:18:00.909Z,38.83
2023-05-19T20:20:30.334Z,34.13
2023-05-19T20:22:59.614Z,33.65
2023-05-19T20:25:28.894Z,36.17
2023-05-19T20:27:58.272Z,38.47
2023-05-19T20:30:27.872Z,34.78
2023-05-19T20:32:57.164Z,36.97
2023-05-19T20:35:26.757Z,37.33
2023-05-19T20:37:56.184Z,40.35
2023-05-19T20:40:25.392Z,43.47
2023-05-19T20:42:54.672Z,31.77
2023-05-19T20:45:23.906Z,38.13
2023-05-19T20:47:54.802Z,40.38
2023-05-19T20:50:24.242Z,37.80
2023-05-19T20:52:53.461Z,39.55
2023-05-19T20:55:22.791Z,44.63
2023-05-19T20:57:52.047Z,30.08
2023-05-19T21:00:22.439Z,40.85
2023-05-19T21:02:52.609Z,41.53
2023-05-19T21:05:21.946Z,38.30
2023-05-19T21:07:51.239Z,35.58
2023-05-19T21:10:20.573Z,33.08
2023-05-19T21:12:50.072Z,39.10
2023-05-19T21:15:19.513Z,32.10
2023-05-19T21:17:56.066Z,34.03
2023-05-19T21:20:25.401Z,33.38
2023-05-19T21:22:54.610Z,34.90
2023-05-19T21:25:24.111Z,32.42
2023-05-19T21:27:53.360Z,30.40
2023-05-19T21:30:24.545Z,30.40
2023-05-19T21:32:54.276Z,37.15
2023-05-19T21:35:23.950Z,31.40
2023-05-19T21:37:53.723Z,38.50
2023-05-19T21:40:22.952Z,31.80
2023-05-19T21:42:52.182Z,36.67
2023-05-19T21:45:21.501Z,35.80
2023-05-19T21:47:50.770Z,37.95
2023-05-19T21:50:20.084Z,34.83
2023-05-19T21:52:49.363Z,38.95
2023-05-19T21:55:18.613Z,41.63
2023-05-19T21:57:50.897Z,33.97
2023-05-19T22:00:20.290Z,42.22
2023-05-19T22:02:50.710Z,39.42
2023-05-19T22:05:20.084Z,37.58
2023-05-19T22:07:49.364Z,35.33
2023-05-19T22:10:18.633Z,38.05
2023-05-19T22:12:48.034Z,42.42
2023-05-19T22:15:17.275Z,34.45
2023-05-19T22:17:46.554Z,39.42
2023-05-19T22:20:15.909Z,38.33
2023-05-19T22:22:45.149Z,34.72
2023-05-19T22:25:14.427Z,36.80
2023-05-19T22:27:43.733Z,36.22
2023-05-19T22:30:13.384Z,32.13
2023-05-19T22:32:42.795Z,38.58
2023-05-19T22:35:13.543Z,32.72
2023-05-19T22:37:43.286Z,30.77
2023-05-19T22:40:13.087Z,35.35
2023-05-19T22:42:42.423Z,37.03
2023-05-19T22:45:12.462Z,33.78
2023-05-19T22:47:41.958Z,32.53
2023-05-19T22:50:13.195Z,34.42
2023-05-19T22:52:43.474Z,39.72
2023-05-19T22:55:12.689Z,29.85
2023-05-19T22:57:42.043Z,33.00
2023-05-19T23:00:15.152Z,38.25
2023-05-19T23:02:44.518Z,36.25
2023-05-19T23:05:13.876Z,34.63
2023-05-19T23:07:43.289Z,36.97
2023-05-19T23:10:12.955Z,39.55
2023-05-19T23:12:42.322Z,42.50
2023-05-19T23:15:13.014Z,39.90
2023-05-19T23:17:42.428Z,36.72
2023-05-19T23:20:13.148Z,46.83
2023-05-19T23:22:42.560Z,41.67
2023-05-19T23:25:12.309Z,37.95
2023-05-19T23:27:42.096Z,32.45
2023-05-19T23:30:11.880Z,37.35
2023-05-19T23:32:42.861Z,39.80
2023-05-19T23:35:18.503Z,48.55
2023-05-19T23:37:47.919Z,53.90
2023-05-19T23:40:17.561Z,52.60
2023-05-19T23:42:47.051Z,47.65
2023-05-19T23:45:16.538Z,44.08
2023-05-19T23:47:45.978Z,44.63
2023-05-19T23:50:18.536Z,41.42
2023-05-19T23:52:55.310Z,47.00
2023-05-19T23:55:24.737Z,44.78
2023-05-19T23:57:54.052Z,43.00
